Terminal Aerodrome Forecast
Issued by NWS

Home | Current Version | Previous Version | Text Only | Print | Product List | Glossary On
Versions: 1 2 3 4 5 6 7 8 9 10 11 12 13 14 15 16 17 18
000
FTUS43 KPAH 231612 AAB
TAFCGI
TAF AMD
KCGI 231612Z 2316/2412 20009KT P6SM OVC007
      TEMPO 2317/2320 SCT007 BKN035
     FM232000 18012KT P6SM SCT035 BKN250
     FM240600 19015G22KT P6SM BKN030=

USA.gov is the U.S. government's official web portal to all federal, state and local government web resources and services.